sensor_id;sensor_type;location;lat;lon;timestamp;pressure;altitude;pressure_sealevel;temperature;humidity
73558;BME280;61829;53.286;10.434;2023-06-22T00:00:58;101687.69;;;18.53;77.18
73558;BME280;61829;53.286;10.434;2023-06-22T00:03:31;101688.13;;;18.50;77.44
73558;BME280;61829;53.286;10.434;2023-06-22T00:05:57;101691.28;;;18.47;77.42
73558;BME280;61829;53.286;10.434;2023-06-22T00:08:23;101695.72;;;18.42;77.95
73558;BME280;61829;53.286;10.434;2023-06-22T00:10:49;101706.44;;;18.36;77.41
73558;BME280;61829;53.286;10.434;2023-06-22T00:13:15;101704.13;;;18.33;78.89
73558;BME280;61829;53.286;10.434;2023-06-22T00:15:43;101700.38;;;18.28;79.17
73558;BME280;61829;53.286;10.434;2023-06-22T00:18:10;101701.88;;;18.24;79.42
73558;BME280;61829;53.286;10.434;2023-06-22T00:20:37;101704.78;;;18.22;79.51
73558;BME280;61829;53.286;10.434;2023-06-22T00:23:04;101707.97;;;18.19;79.61
73558;BME280;61829;53.286;10.434;2023-06-22T00:25:37;101706.72;;;18.15;79.98
73558;BME280;61829;53.286;10.434;2023-06-22T00:28:06;101701.69;;;18.12;80.52
73558;BME280;61829;53.286;10.434;2023-06-22T00:30:35;101710.31;;;18.09;80.43
73558;BME280;61829;53.286;10.434;2023-06-22T00:33:01;101704.41;;;18.05;80.66
73558;BME280;61829;53.286;10.434;2023-06-22T00:35:27;101704.41;;;18.05;80.97
73558;BME280;61829;53.286;10.434;2023-06-22T00:37:56;101705.91;;;18.01;80.08
73558;BME280;61829;53.286;10.434;2023-06-22T00:40:31;101712.19;;;18.02;81.66
73558;BME280;61829;53.286;10.434;2023-06-22T00:42:58;101710.97;;;17.98;82.54
73558;BME280;61829;53.286;10.434;2023-06-22T00:45:25;101711.16;;;17.96;82.65
73558;BME280;61829;53.286;10.434;2023-06-22T00:47:52;101714.50;;;17.91;83.66
73558;BME280;61829;53.286;10.434;2023-06-22T00:50:20;101715.56;;;17.90;82.74
73558;BME280;61829;53.286;10.434;2023-06-22T00:52:51;101705.91;;;17.88;82.24
73558;BME280;61829;53.286;10.434;2023-06-22T00:55:20;101709.91;;;17.85;83.05
73558;BME280;61829;53.286;10.434;2023-06-22T00:57:47;101715.59;;;17.84;82.49
73558;BME280;61829;53.286;10.434;2023-06-22T01:00:15;101717.69;;;17.82;81.88
73558;BME280;61829;53.286;10.434;2023-06-22T01:02:43;101719.78;;;17.80;81.13
73558;BME280;61829;53.286;10.434;2023-06-22T01:05:15;101716.22;;;17.79;81.82
73558;BME280;61829;53.286;10.434;2023-06-22T01:08:02;101715.53;;;17.77;82.57
73558;BME280;61829;53.286;10.434;2023-06-22T01:10:43;101713.47;;;17.72;82.86
73558;BME280;61829;53.286;10.434;2023-06-22T01:18:32;101707.38;;;17.64;83.88
73558;BME280;61829;53.286;10.434;2023-06-22T01:21:04;101700.47;;;17.61;83.46
73558;BME280;61829;53.286;10.434;2023-06-22T01:28:55;101704.66;;;17.57;83.01
73558;BME280;61829;53.286;10.434;2023-06-22T01:31:27;101704.22;;;17.54;83.65
73558;BME280;61829;53.286;10.434;2023-06-22T01:34:03;101710.94;;;17.51;82.98
73558;BME280;61829;53.286;10.434;2023-06-22T01:36:32;101712.84;;;17.50;83.99
73558;BME280;61829;53.286;10.434;2023-06-22T01:38:59;101713.03;;;17.49;84.00
73558;BME280;61829;53.286;10.434;2023-06-22T01:41:26;101710.13;;;17.44;84.54
73558;BME280;61829;53.286;10.434;2023-06-22T01:43:54;101704.22;;;17.40;84.36
73558;BME280;61829;53.286;10.434;2023-06-22T01:46:21;101713.44;;;17.39;84.12
73558;BME280;61829;53.286;10.434;2023-06-22T01:48:48;101705.47;;;17.38;84.12
73558;BME280;61829;53.286;10.434;2023-06-22T01:51:15;101703.16;;;17.35;85.47
73558;BME280;61829;53.286;10.434;2023-06-22T01:53:42;101700.66;;;17.33;84.54
73558;BME280;61829;53.286;10.434;2023-06-22T01:56:09;101705.47;;;17.31;85.11
73558;BME280;61829;53.286;10.434;2023-06-22T01:58:36;101696.66;;;17.29;85.17
73558;BME280;61829;53.286;10.434;2023-06-22T02:01:11;101703.59;;;17.25;85.61
73558;BME280;61829;53.286;10.434;2023-06-22T02:03:44;101695.00;;;17.21;86.12
73558;BME280;61829;53.286;10.434;2023-06-22T02:06:17;101700.88;;;17.18;86.35
73558;BME280;61829;53.286;10.434;2023-06-22T02:08:50;101702.53;;;17.13;86.80
73558;BME280;61829;53.286;10.434;2023-06-22T02:11:19;101701.06;;;17.10;87.27
73558;BME280;61829;53.286;10.434;2023-06-22T02:13:46;101695.81;;;17.09;86.99
73558;BME280;61829;53.286;10.434;2023-06-22T02:16:13;101694.97;;;17.08;86.88
73558;BME280;61829;53.286;10.434;2023-06-22T02:18:38;101693.50;;;17.05;86.69
73558;BME280;61829;53.286;10.434;2023-06-22T02:21:06;101689.13;;;17.04;86.16
73558;BME280;61829;53.286;10.434;2023-06-22T02:23:32;101687.63;;;17.02;85.96
73558;BME280;61829;53.286;10.434;2023-06-22T02:26:02;101694.09;;;17.01;85.88
73558;BME280;61829;53.286;10.434;2023-06-22T02:28:28;101690.78;;;16.99;85.15
73558;BME280;61829;53.286;10.434;2023-06-22T02:30:54;101689.06;;;16.98;85.53
73558;BME280;61829;53.286;10.434;2023-06-22T02:33:20;101695.78;;;16.95;86.10
73558;BME280;61829;53.286;10.434;2023-06-22T02:35:47;101696.59;;;16.89;86.73
73558;BME280;61829;53.286;10.434;2023-06-22T02:38:14;101690.72;;;16.86;86.10
73558;BME280;61829;53.286;10.434;2023-06-22T02:40:40;101689.91;;;16.85;86.76
73558;BME280;61829;53.286;10.434;2023-06-22T02:43:06;101688.63;;;16.81;85.33
73558;BME280;61829;53.286;10.434;2023-06-22T02:45:32;101693.22;;;16.80;86.81
73558;BME280;61829;53.286;10.434;2023-06-22T02:47:58;101693.22;;;16.80;86.55
73558;BME280;61829;53.286;10.434;2023-06-22T02:50:24;101692.41;;;16.80;86.21
73558;BME280;61829;53.286;10.434;2023-06-22T02:52:50;101690.72;;;16.79;87.53
73558;BME280;61829;53.286;10.434;2023-06-22T02:55:16;101690.09;;;16.77;87.89
73558;BME280;61829;53.286;10.434;2023-06-22T02:57:42;101688.56;;;16.74;87.98
73558;BME280;61829;53.286;10.434;2023-06-22T03:00:10;101686.03;;;16.73;88.80
73558;BME280;61829;53.286;10.434;2023-06-22T03:02:46;101687.31;;;16.70;89.02
73558;BME280;61829;53.286;10.434;2023-06-22T03:05:14;101693.59;;;16.71;88.44
73558;BME280;61829;53.286;10.434;2023-06-22T03:07:41;101694.63;;;16.70;88.32
73558;BME280;61829;53.286;10.434;2023-06-22T03:10:09;101699.03;;;16.71;87.54
73558;BME280;61829;53.286;10.434;2023-06-22T03:12:36;101701.13;;;16.69;87.70
73558;BME280;61829;53.286;10.434;2023-06-22T03:15:03;101700.69;;;16.65;87.77
73558;BME280;61829;53.286;10.434;2023-06-22T03:17:28;101703.19;;;16.60;88.52
73558;BME280;61829;53.286;10.434;2023-06-22T03:19:55;101708.38;;;16.55;88.62
73558;BME280;61829;53.286;10.434;2023-06-22T03:22:20;101709.84;;;16.51;88.53
73558;BME280;61829;53.286;10.434;2023-06-22T03:24:46;101716.13;;;16.51;89.15
73558;BME280;61829;53.286;10.434;2023-06-22T03:27:12;101715.47;;;16.49;88.78
73558;BME280;61829;53.286;10.434;2023-06-22T03:29:38;101723.63;;;16.49;89.39
73558;BME280;61829;53.286;10.434;2023-06-22T03:32:04;101728.06;;;16.50;89.22
73558;BME280;61829;53.286;10.434;2023-06-22T03:34:32;101729.09;;;16.56;89.90
73558;BME280;61829;53.286;10.434;2023-06-22T03:37:04;101732.06;;;16.61;89.56
73558;BME280;61829;53.286;10.434;2023-06-22T03:39:30;101727.91;;;16.65;88.59
73558;BME280;61829;53.286;10.434;2023-06-22T03:41:55;101720.16;;;16.69;88.11
73558;BME280;61829;53.286;10.434;2023-06-22T03:44:21;101724.78;;;16.75;87.43
73558;BME280;61829;53.286;10.434;2023-06-22T03:46:47;101725.88;;;16.80;86.98
73558;BME280;61829;53.286;10.434;2023-06-22T03:49:13;101728.84;;;16.86;86.35
73558;BME280;61829;53.286;10.434;2023-06-22T03:51:39;101739.34;;;16.95;86.54
73558;BME280;61829;53.286;10.434;2023-06-22T03:54:05;101743.13;;;16.94;86.23
73558;BME280;61829;53.286;10.434;2023-06-22T03:56:31;101754.44;;;16.98;86.66
73558;BME280;61829;53.286;10.434;2023-06-22T03:58:57;101744.19;;;17.06;86.60
73558;BME280;61829;53.286;10.434;2023-06-22T04:01:23;101748.38;;;17.09;86.62
73558;BME280;61829;53.286;10.434;2023-06-22T04:03:49;101743.38;;;17.13;86.74
73558;BME280;61829;53.286;10.434;2023-06-22T04:06:15;101746.72;;;17.15;87.11
73558;BME280;61829;53.286;10.434;2023-06-22T04:08:41;101745.69;;;17.16;86.96
73558;BME280;61829;53.286;10.434;2023-06-22T04:11:07;101749.25;;;17.23;86.73
73558;BME280;61829;53.286;10.434;2023-06-22T04:13:33;101751.56;;;17.26;85.96
73558;BME280;61829;53.286;10.434;2023-06-22T04:15:59;101749.50;;;17.35;86.23
73558;BME280;61829;53.286;10.434;2023-06-22T04:18:27;101753.50;;;17.45;85.91
73558;BME280;61829;53.286;10.434;2023-06-22T04:20:53;101749.94;;;17.51;85.12
73558;BME280;61829;53.286;10.434;2023-06-22T04:23:19;101750.38;;;17.55;84.94
73558;BME280;61829;53.286;10.434;2023-06-22T04:25:44;101757.25;;;17.58;84.06
73558;BME280;61829;53.286;10.434;2023-06-22T04:28:10;101755.81;;;17.62;83.23
73558;BME280;61829;53.286;10.434;2023-06-22T04:30:38;101764.81;;;17.62;83.36
73558;BME280;61829;53.286;10.434;2023-06-22T04:33:13;101757.06;;;17.66;82.63
73558;BME280;61829;53.286;10.434;2023-06-22T04:35:39;101752.50;;;17.80;82.88
73558;BME280;61829;53.286;10.434;2023-06-22T04:38:08;101749.34;;;17.96;82.16
73558;BME280;61829;53.286;10.434;2023-06-22T04:40:34;101747.22;;;18.11;80.29
73558;BME280;61829;53.286;10.434;2023-06-22T04:43:00;101751.81;;;18.24;80.07
73558;BME280;61829;53.286;10.434;2023-06-22T04:45:28;101744.22;;;18.33;79.13
73558;BME280;61829;53.286;10.434;2023-06-22T04:47:55;101748.84;;;18.39;79.38
73558;BME280;61829;53.286;10.434;2023-06-22T04:50:21;101742.50;;;18.52;79.33
73558;BME280;61829;53.286;10.434;2023-06-22T04:52:47;101749.41;;;18.61;77.94
73558;BME280;61829;53.286;10.434;2023-06-22T04:55:14;101749.78;;;18.78;77.53
73558;BME280;61829;53.286;10.434;2023-06-22T04:57:45;101756.81;;;18.99;77.08
73558;BME280;61829;53.286;10.434;2023-06-22T05:00:23;101754.66;;;19.14;75.46
73558;BME280;61829;53.286;10.434;2023-06-22T05:02:49;101759.41;;;19.25;74.00
73558;BME280;61829;53.286;10.434;2023-06-22T05:05:16;101754.97;;;19.31;74.68
73558;BME280;61829;53.286;10.434;2023-06-22T05:07:44;101756.56;;;19.39;73.58
73558;BME280;61829;53.286;10.434;2023-06-22T05:10:11;101749.66;;;19.36;73.58
73558;BME280;61829;53.286;10.434;2023-06-22T05:12:39;101750.97;;;19.34;74.35
73558;BME280;61829;53.286;10.434;2023-06-22T05:15:06;101748.22;;;19.34;73.69
73558;BME280;61829;53.286;10.434;2023-06-22T05:17:33;101754.91;;;19.38;73.20
73558;BME280;61829;53.286;10.434;2023-06-22T05:19:59;101752.19;;;19.38;73.06
73558;BME280;61829;53.286;10.434;2023-06-22T05:22:25;101754.34;;;19.29;73.21
73558;BME280;61829;53.286;10.434;2023-06-22T05:24:51;101746.97;;;19.29;74.76
73558;BME280;61829;53.286;10.434;2023-06-22T05:27:17;101744.34;;;19.41;73.88
73558;BME280;61829;53.286;10.434;2023-06-22T05:29:43;101756.59;;;19.64;73.50
73558;BME280;61829;53.286;10.434;2023-06-22T05:32:09;101745.19;;;19.99;72.22
73558;BME280;61829;53.286;10.434;2023-06-22T05:34:35;101748.56;;;20.37;70.41
73558;BME280;61829;53.286;10.434;2023-06-22T05:37:02;101750.19;;;20.45;70.91
73558;BME280;61829;53.286;10.434;2023-06-22T05:39:28;101749.41;;;20.38;71.34
73558;BME280;61829;53.286;10.434;2023-06-22T05:41:54;101758.13;;;20.53;70.82
73558;BME280;61829;53.286;10.434;2023-06-22T05:44:19;101752.56;;;20.60;71.06
73558;BME280;61829;53.286;10.434;2023-06-22T05:46:46;101751.50;;;21.10;69.90
73558;BME280;61829;53.286;10.434;2023-06-22T05:49:14;101752.03;;;21.60;66.91
73558;BME280;61829;53.286;10.434;2023-06-22T05:51:41;101751.94;;;21.90;65.43
73558;BME280;61829;53.286;10.434;2023-06-22T05:54:07;101754.00;;;22.18;64.93
73558;BME280;61829;53.286;10.434;2023-06-22T05:56:34;101749.63;;;22.58;63.66
73558;BME280;61829;53.286;10.434;2023-06-22T05:59:00;101756.50;;;22.96;62.09
73558;BME280;61829;53.286;10.434;2023-06-22T06:01:26;101746.06;;;23.26;59.97
73558;BME280;61829;53.286;10.434;2023-06-22T06:03:52;101745.84;;;23.45;58.40
73558;BME280;61829;53.286;10.434;2023-06-22T06:06:18;101756.53;;;23.58;58.64
73558;BME280;61829;53.286;10.434;2023-06-22T06:08:49;101758.84;;;23.49;58.65
73558;BME280;61829;53.286;10.434;2023-06-22T06:11:15;101764.03;;;23.63;57.85
73558;BME280;61829;53.286;10.434;2023-06-22T06:13:41;101759.19;;;23.70;56.93
73558;BME280;61829;53.286;10.434;2023-06-22T06:16:07;101751.09;;;23.63;57.56
73558;BME280;61829;53.286;10.434;2023-06-22T06:18:32;101746.25;;;23.37;57.92
73558;BME280;61829;53.286;10.434;2023-06-22T06:20:59;101752.41;;;23.61;57.83
73558;BME280;61829;53.286;10.434;2023-06-22T06:23:24;101749.56;;;23.84;56.51
73558;BME280;61829;53.286;10.434;2023-06-22T06:25:50;101746.22;;;23.82;56.70
73558;BME280;61829;53.286;10.434;2023-06-22T06:28:16;101752.97;;;23.74;56.43
73558;BME280;61829;53.286;10.434;2023-06-22T06:30:42;101743.78;;;23.86;57.07
73558;BME280;61829;53.286;10.434;2023-06-22T06:33:08;101743.19;;;24.01;56.96
73558;BME280;61829;53.286;10.434;2023-06-22T06:35:34;101742.19;;;24.29;56.36
73558;BME280;61829;53.286;10.434;2023-06-22T06:38:00;101738.16;;;24.53;57.17
73558;BME280;61829;53.286;10.434;2023-06-22T06:40:26;101744.16;;;24.94;55.93
73558;BME280;61829;53.286;10.434;2023-06-22T06:42:52;101732.69;;;25.07;55.21
73558;BME280;61829;53.286;10.434;2023-06-22T06:45:22;101739.78;;;25.20;53.30
73558;BME280;61829;53.286;10.434;2023-06-22T06:47:50;101732.50;;;25.41;52.77
73558;BME280;61829;53.286;10.434;2023-06-22T06:50:17;101721.75;;;25.77;52.63
73558;BME280;61829;53.286;10.434;2023-06-22T06:52:43;101719.75;;;26.00;52.39
73558;BME280;61829;53.286;10.434;2023-06-22T06:55:09;101718.09;;;26.04;52.22
73558;BME280;61829;53.286;10.434;2023-06-22T06:57:38;101717.34;;;26.13;52.86
73558;BME280;61829;53.286;10.434;2023-06-22T07:00:06;101717.16;;;26.35;51.69
73558;BME280;61829;53.286;10.434;2023-06-22T07:02:41;101711.97;;;26.49;50.72
73558;BME280;61829;53.286;10.434;2023-06-22T07:05:09;101717.31;;;26.66;50.05
73558;BME280;61829;53.286;10.434;2023-06-22T07:07:36;101713.97;;;26.54;50.42
73558;BME280;61829;53.286;10.434;2023-06-22T07:10:07;101723.13;;;26.64;50.48
73558;BME280;61829;53.286;10.434;2023-06-22T07:12:34;101721.25;;;26.85;50.51
73558;BME280;61829;53.286;10.434;2023-06-22T07:15:05;101728.75;;;27.05;49.60
73558;BME280;61829;53.286;10.434;2023-06-22T07:17:33;101721.91;;;27.18;49.27
73558;BME280;61829;53.286;10.434;2023-06-22T07:20:01;101722.19;;;27.47;48.43
73558;BME280;61829;53.286;10.434;2023-06-22T07:22:29;101724.69;;;27.59;47.30
73558;BME280;61829;53.286;10.434;2023-06-22T07:24:56;101722.47;;;27.66;47.56
73558;BME280;61829;53.286;10.434;2023-06-22T07:27:21;101728.84;;;27.77;47.03
73558;BME280;61829;53.286;10.434;2023-06-22T07:29:47;101724.13;;;27.72;47.21
73558;BME280;61829;53.286;10.434;2023-06-22T07:32:13;101730.47;;;27.78;47.18
73558;BME280;61829;53.286;10.434;2023-06-22T07:34:39;101732.72;;;27.86;47.90
73558;BME280;61829;53.286;10.434;2023-06-22T07:37:05;101721.81;;;28.26;45.20
73558;BME280;61829;53.286;10.434;2023-06-22T07:39:32;101723.72;;;28.35;44.91
73558;BME280;61829;53.286;10.434;2023-06-22T07:41:58;101720.47;;;28.08;45.19
73558;BME280;61829;53.286;10.434;2023-06-22T07:44:25;101716.38;;;27.64;46.53
73558;BME280;61829;53.286;10.434;2023-06-22T07:46:51;101721.06;;;27.48;47.13
73558;BME280;61829;53.286;10.434;2023-06-22T07:49:18;101728.00;;;27.71;47.58
73558;BME280;61829;53.286;10.434;2023-06-22T07:51:45;101718.06;;;27.86;46.53
73558;BME280;61829;53.286;10.434;2023-06-22T07:54:12;101719.13;;;27.90;45.86
73558;BME280;61829;53.286;10.434;2023-06-22T07:56:39;101723.59;;;27.81;44.51
73558;BME280;61829;53.286;10.434;2023-06-22T07:59:06;101715.53;;;27.79;45.04
73558;BME280;61829;53.286;10.434;2023-06-22T08:01:35;101713.91;;;27.58;46.29
73558;BME280;61829;53.286;10.434;2023-06-22T08:04:01;101715.28;;;27.50;46.25
73558;BME280;61829;53.286;10.434;2023-06-22T08:06:29;101703.38;;;27.80;46.38
73558;BME280;61829;53.286;10.434;2023-06-22T08:08:56;101714.16;;;27.92;45.42
73558;BME280;61829;53.286;10.434;2023-06-22T08:11:24;101712.50;;;27.86;47.43
73558;BME280;61829;53.286;10.434;2023-06-22T08:13:51;101711.91;;;27.94;44.47
73558;BME280;61829;53.286;10.434;2023-06-22T08:16:17;101715.22;;;28.11;46.46
73558;BME280;61829;53.286;10.434;2023-06-22T08:18:43;101716.88;;;28.07;45.13
73558;BME280;61829;53.286;10.434;2023-06-22T08:21:09;101710.25;;;27.98;46.61
73558;BME280;61829;53.286;10.434;2023-06-22T08:23:36;101714.91;;;28.23;45.75
73558;BME280;61829;53.286;10.434;2023-06-22T08:26:08;101715.22;;;28.11;43.49
73558;BME280;61829;53.286;10.434;2023-06-22T08:28:34;101719.63;;;28.23;43.78
73558;BME280;61829;53.286;10.434;2023-06-22T08:31:02;101714.13;;;28.02;42.95
73558;BME280;61829;53.286;10.434;2023-06-22T08:33:29;101710.56;;;27.66;45.43
73558;BME280;61829;53.286;10.434;2023-06-22T08:35:57;101710.53;;;27.76;45.91
73558;BME280;61829;53.286;10.434;2023-06-22T08:38:24;101706.91;;;28.01;43.70
73558;BME280;61829;53.286;10.434;2023-06-22T08:40:50;101706.59;;;28.23;44.70
73558;BME280;61829;53.286;10.434;2023-06-22T08:43:16;101706.25;;;28.40;43.47
73558;BME280;61829;53.286;10.434;2023-06-22T08:45:42;101703.84;;;28.13;43.86
73558;BME280;61829;53.286;10.434;2023-06-22T08:48:08;101701.69;;;27.89;45.04
73558;BME280;61829;53.286;10.434;2023-06-22T08:50:34;101701.97;;;27.88;45.27
73558;BME280;61829;53.286;10.434;2023-06-22T08:53:01;101693.63;;;28.03;44.94
73558;BME280;61829;53.286;10.434;2023-06-22T08:55:26;101698.91;;;27.94;44.22
73558;BME280;61829;53.286;10.434;2023-06-22T08:57:53;101692.72;;;28.23;44.23
73558;BME280;61829;53.286;10.434;2023-06-22T09:00:19;101696.84;;;28.31;44.54
73558;BME280;61829;53.286;10.434;2023-06-22T09:02:46;101707.06;;;28.40;44.34
73558;BME280;61829;53.286;10.434;2023-06-22T09:05:12;101707.97;;;28.20;43.10
73558;BME280;61829;53.286;10.434;2023-06-22T09:07:39;101697.72;;;28.11;44.64
73558;BME280;61829;53.286;10.434;2023-06-22T09:10:08;101692.06;;;28.41;44.59
73558;BME280;61829;53.286;10.434;2023-06-22T09:12:44;101690.56;;;28.75;44.04
73558;BME280;61829;53.286;10.434;2023-06-22T09:15:13;101690.16;;;28.97;43.20
73558;BME280;61829;53.286;10.434;2023-06-22T09:17:41;101685.97;;;28.99;44.39
73558;BME280;61829;53.286;10.434;2023-06-22T09:20:08;101682.22;;;29.24;43.46
73558;BME280;61829;53.286;10.434;2023-06-22T09:22:36;101687.78;;;29.19;43.16
73558;BME280;61829;53.286;10.434;2023-06-22T09:25:02;101680.47;;;29.34;43.66
73558;BME280;61829;53.286;10.434;2023-06-22T09:27:29;101674.06;;;29.67;42.33
73558;BME280;61829;53.286;10.434;2023-06-22T09:29:55;101682.91;;;29.98;42.16
73558;BME280;61829;53.286;10.434;2023-06-22T09:32:21;101672.97;;;29.92;41.06
73558;BME280;61829;53.286;10.434;2023-06-22T09:34:46;101663.19;;;29.71;41.41
73558;BME280;61829;53.286;10.434;2023-06-22T09:37:12;101658.81;;;29.89;41.40
73558;BME280;61829;53.286;10.434;2023-06-22T09:39:38;101663.91;;;30.06;42.47
73558;BME280;61829;53.286;10.434;2023-06-22T09:42:05;101661.00;;;30.16;41.37
73558;BME280;61829;53.286;10.434;2023-06-22T09:44:31;101646.50;;;29.95;41.70
73558;BME280;61829;53.286;10.434;2023-06-22T09:46:57;101657.34;;;29.96;41.58
73558;BME280;61829;53.286;10.434;2023-06-22T09:49:52;101645.88;;;29.79;41.42
73558;BME280;61829;53.286;10.434;2023-06-22T09:52:18;101647.72;;;30.13;41.91
73558;BME280;61829;53.286;10.434;2023-06-22T09:54:43;101627.84;;;30.25;40.98
73558;BME280;61829;53.286;10.434;2023-06-22T09:57:09;101626.25;;;30.37;40.84
73558;BME280;61829;53.286;10.434;2023-06-22T09:59:35;101635.53;;;30.33;39.90
73558;BME280;61829;53.286;10.434;2023-06-22T10:02:01;101621.63;;;30.33;38.39
73558;BME280;61829;53.286;10.434;2023-06-22T10:04:27;101623.47;;;30.37;39.23
73558;BME280;61829;53.286;10.434;2023-06-22T10:06:53;101618.06;;;30.27;39.65
73558;BME280;61829;53.286;10.434;2023-06-22T10:09:19;101621.50;;;30.19;40.32
73558;BME280;61829;53.286;10.434;2023-06-22T10:11:46;101614.94;;;29.86;41.06
73558;BME280;61829;53.286;10.434;2023-06-22T10:14:12;101614.19;;;29.80;41.32
73558;BME280;61829;53.286;10.434;2023-06-22T10:16:38;101608.91;;;29.49;41.83
73558;BME280;61829;53.286;10.434;2023-06-22T10:19:06;101611.16;;;29.76;39.80
73558;BME280;61829;53.286;10.434;2023-06-22T10:21:33;101614.88;;;30.15;38.97
73558;BME280;61829;53.286;10.434;2023-06-22T10:23:59;101614.88;;;30.58;38.82
73558;BME280;61829;53.286;10.434;2023-06-22T10:26:29;101613.81;;;30.73;38.57
73558;BME280;61829;53.286;10.434;2023-06-22T10:28:55;101615.31;;;30.84;38.87
73558;BME280;61829;53.286;10.434;2023-06-22T10:34:36;101612.28;;;30.42;40.23
73558;BME280;61829;53.286;10.434;2023-06-22T10:37:03;101609.22;;;30.44;39.43
73558;BME280;61829;53.286;10.434;2023-06-22T10:39:28;101602.81;;;30.25;37.95
73558;BME280;61829;53.286;10.434;2023-06-22T10:41:54;101592.50;;;30.63;38.16
73558;BME280;61829;53.286;10.434;2023-06-22T10:44:21;101587.91;;;30.91;38.01
73558;BME280;61829;53.286;10.434;2023-06-22T10:46:48;101600.63;;;30.78;37.64
73558;BME280;61829;53.286;10.434;2023-06-22T10:49:13;101594.56;;;30.57;39.04
73558;BME280;61829;53.286;10.434;2023-06-22T10:51:40;101584.09;;;30.30;40.53
73558;BME280;61829;53.286;10.434;2023-06-22T10:54:07;101578.75;;;30.15;39.68
73558;BME280;61829;53.286;10.434;2023-06-22T10:56:33;101585.03;;;30.02;39.84
73558;BME280;61829;53.286;10.434;2023-06-22T10:58:59;101581.91;;;29.84;39.64
73558;BME280;61829;53.286;10.434;2023-06-22T11:01:25;101584.53;;;29.75;40.77
73558;BME280;61829;53.286;10.434;2023-06-22T11:03:51;101588.34;;;29.80;40.53
73558;BME280;61829;53.286;10.434;2023-06-22T11:06:17;101577.59;;;29.73;40.24
73558;BME280;61829;53.286;10.434;2023-06-22T11:08:44;101575.22;;;29.85;40.38
73558;BME280;61829;53.286;10.434;2023-06-22T11:11:10;101574.34;;;29.90;40.25
73558;BME280;61829;53.286;10.434;2023-06-22T11:13:36;101581.97;;;29.79;41.00
73558;BME280;61829;53.286;10.434;2023-06-22T11:16:02;101574.34;;;29.66;39.72
73558;BME280;61829;53.286;10.434;2023-06-22T11:18:28;101567.16;;;29.60;39.52
73558;BME280;61829;53.286;10.434;2023-06-22T11:20:54;101570.59;;;29.51;39.68
73558;BME280;61829;53.286;10.434;2023-06-22T11:23:20;101562.03;;;29.48;40.00
73558;BME280;61829;53.286;10.434;2023-06-22T11:25:46;101561.13;;;29.52;40.74
73558;BME280;61829;53.286;10.434;2023-06-22T11:28:13;101551.97;;;29.52;40.31
73558;BME280;61829;53.286;10.434;2023-06-22T11:30:38;101553.28;;;29.36;40.92
73558;BME280;61829;53.286;10.434;2023-06-22T11:33:04;101554.50;;;29.24;40.19
73558;BME280;61829;53.286;10.434;2023-06-22T11:35:30;101554.16;;;29.31;40.90
73558;BME280;61829;53.286;10.434;2023-06-22T11:37:56;101555.19;;;29.35;40.15
73558;BME280;61829;53.286;10.434;2023-06-22T11:40:22;101555.63;;;29.47;41.03
73558;BME280;61829;53.286;10.434;2023-06-22T11:42:48;101550.50;;;29.36;41.89
73558;BME280;61829;53.286;10.434;2023-06-22T11:45:14;101547.00;;;29.25;42.43
73558;BME280;61829;53.286;10.434;2023-06-22T11:47:40;101545.91;;;29.21;41.53
73558;BME280;61829;53.286;10.434;2023-06-22T11:50:06;101553.06;;;29.27;40.93
73558;BME280;61829;53.286;10.434;2023-06-22T11:52:33;101546.69;;;29.26;41.03
73558;BME280;61829;53.286;10.434;2023-06-22T11:54:59;101544.44;;;28.99;41.09
73558;BME280;61829;53.286;10.434;2023-06-22T11:57:25;101539.03;;;28.79;42.52
73558;BME280;61829;53.286;10.434;2023-06-22T11:59:52;101533.41;;;28.60;43.60
73558;BME280;61829;53.286;10.434;2023-06-22T12:02:17;101523.16;;;28.55;43.14
73558;BME280;61829;53.286;10.434;2023-06-22T12:04:43;101527.09;;;28.49;43.60
73558;BME280;61829;53.286;10.434;2023-06-22T12:07:09;101528.25;;;28.43;43.52
73558;BME280;61829;53.286;10.434;2023-06-22T12:09:35;101532.66;;;28.39;43.86
73558;BME280;61829;53.286;10.434;2023-06-22T12:12:02;101527.19;;;28.34;43.55
73558;BME280;61829;53.286;10.434;2023-06-22T12:14:29;101520.25;;;28.31;43.69
73558;BME280;61829;53.286;10.434;2023-06-22T12:16:54;101522.75;;;28.28;43.49
73558;BME280;61829;53.286;10.434;2023-06-22T12:19:20;101512.56;;;28.23;44.62
73558;BME280;61829;53.286;10.434;2023-06-22T12:21:46;101520.84;;;28.28;44.01
73558;BME280;61829;53.286;10.434;2023-06-22T12:24:12;101510.81;;;28.32;43.80
73558;BME280;61829;53.286;10.434;2023-06-22T12:26:38;101509.22;;;28.21;43.42
73558;BME280;61829;53.286;10.434;2023-06-22T12:29:04;101506.72;;;28.25;44.05
73558;BME280;61829;53.286;10.434;2023-06-22T12:31:30;101506.69;;;28.30;45.45
73558;BME280;61829;53.286;10.434;2023-06-22T12:33:56;101500.00;;;28.31;44.34
73558;BME280;61829;53.286;10.434;2023-06-22T12:36:21;101498.31;;;28.35;44.06
73558;BME280;61829;53.286;10.434;2023-06-22T12:38:48;101502.84;;;28.26;44.46
73558;BME280;61829;53.286;10.434;2023-06-22T12:41:14;101494.31;;;28.17;43.91
73558;BME280;61829;53.286;10.434;2023-06-22T12:44:08;101521.22;;;28.11;44.52
73558;BME280;61829;53.286;10.434;2023-06-22T12:46:34;101500.22;;;28.00;44.25
73558;BME280;61829;53.286;10.434;2023-06-22T12:49:04;101499.44;;;27.94;44.72
73558;BME280;61829;53.286;10.434;2023-06-22T12:51:30;101488.63;;;27.88;44.37
73558;BME280;61829;53.286;10.434;2023-06-22T12:53:56;101497.50;;;27.90;44.79